sensor_id;sensor_type;location;lat;lon;timestamp;P1;P2;P0
70915;PMS5003;58557;50.982;-3.222;2022-09-17T00:01:01;18;15;
70915;PMS5003;58557;50.982;-3.222;2022-09-17T00:03:26;60;57;
70915;PMS5003;58557;50.982;-3.222;2022-09-17T00:08:18;32;29;
70915;PMS5003;58557;50.982;-3.222;2022-09-17T00:10:48;25;22;
70915;PMS5003;58557;50.982;-3.222;2022-09-17T00:13:08;21;19;
70915;PMS5003;58557;50.982;-3.222;2022-09-17T00:17:59;32;28;
70915;PMS5003;58557;50.982;-3.222;2022-09-17T00:20:24;13;10;
70915;PMS5003;58557;50.982;-3.222;2022-09-17T00:22:49;9;3;
70915;PMS5003;58557;50.982;-3.222;2022-09-17T00:25:14;3;3;
70915;PMS5003;58557;50.982;-3.222;2022-09-17T00:27:44;5;3;
70915;PMS5003;58557;50.982;-3.222;2022-09-17T00:30:04;4;4;
70915;PMS5003;58557;50.982;-3.222;2022-09-17T00:32:29;4;3;
70915;PMS5003;58557;50.982;-3.222;2022-09-17T00:34:59;2;2;
70915;PMS5003;58557;50.982;-3.222;2022-09-17T00:37:24;2;2;
70915;PMS5003;58557;50.982;-3.222;2022-09-17T00:39:49;2;2;
70915;PMS5003;58557;50.982;-3.222;2022-09-17T00:42:09;2;2;
70915;PMS5003;58557;50.982;-3.222;2022-09-17T00:44:39;5;3;
70915;PMS5003;58557;50.982;-3.222;2022-09-17T00:47:00;1;1;
70915;PMS5003;58557;50.982;-3.222;2022-09-17T00:49:27;3;3;
70915;PMS5003;58557;50.982;-3.222;2022-09-17T00:51:52;3;3;
70915;PMS5003;58557;50.982;-3.222;2022-09-17T00:54:15;4;2;
70915;PMS5003;58557;50.982;-3.222;2022-09-17T00:56:40;2;2;
70915;PMS5003;58557;50.982;-3.222;2022-09-17T00:59:05;1;1;
70915;PMS5003;58557;50.982;-3.222;2022-09-17T01:01:31;3;2;
70915;PMS5003;58557;50.982;-3.222;2022-09-17T01:03:55;2;2;
70915;PMS5003;58557;50.982;-3.222;2022-09-17T01:06:24;2;2;
70915;PMS5003;58557;50.982;-3.222;2022-09-17T01:08:51;2;2;
70915;PMS5003;58557;50.982;-3.222;2022-09-17T01:11:17;2;2;
70915;PMS5003;58557;50.982;-3.222;2022-09-17T01:13:39;4;2;
70915;PMS5003;58557;50.982;-3.222;2022-09-17T01:16:03;2;2;
70915;PMS5003;58557;50.982;-3.222;2022-09-17T01:18:33;2;2;
70915;PMS5003;58557;50.982;-3.222;2022-09-17T01:23:26;2;2;
70915;PMS5003;58557;50.982;-3.222;2022-09-17T01:25:45;1;1;
70915;PMS5003;58557;50.982;-3.222;2022-09-17T01:30:37;2;2;
70915;PMS5003;58557;50.982;-3.222;2022-09-17T01:32:59;3;3;
70915;PMS5003;58557;50.982;-3.222;2022-09-17T01:35:24;2;2;
70915;PMS5003;58557;50.982;-3.222;2022-09-17T01:37:51;2;2;
70915;PMS5003;58557;50.982;-3.222;2022-09-17T01:40:20;1;1;
70915;PMS5003;58557;50.982;-3.222;2022-09-17T01:42:41;1;1;
70915;PMS5003;58557;50.982;-3.222;2022-09-17T01:45:05;2;2;
70915;PMS5003;58557;50.982;-3.222;2022-09-17T01:47:30;1;1;
70915;PMS5003;58557;50.982;-3.222;2022-09-17T01:50:00;2;2;
70915;PMS5003;58557;50.982;-3.222;2022-09-17T01:52:19;1;1;
70915;PMS5003;58557;50.982;-3.222;2022-09-17T01:54:45;3;3;
70915;PMS5003;58557;50.982;-3.222;2022-09-17T01:57:12;1;1;
70915;PMS5003;58557;50.982;-3.222;2022-09-17T01:59:41;1;1;
70915;PMS5003;58557;50.982;-3.222;2022-09-17T02:02:02;3;2;
70915;PMS5003;58557;50.982;-3.222;2022-09-17T02:04:27;1;1;
70915;PMS5003;58557;50.982;-3.222;2022-09-17T02:06:51;1;1;
70915;PMS5003;58557;50.982;-3.222;2022-09-17T02:09:16;1;1;
70915;PMS5003;58557;50.982;-3.222;2022-09-17T02:11:42;1;1;
70915;PMS5003;58557;50.982;-3.222;2022-09-17T02:14:07;3;1;
70915;PMS5003;58557;50.982;-3.222;2022-09-17T02:16:32;1;1;
70915;PMS5003;58557;50.982;-3.222;2022-09-17T02:18:59;1;1;
70915;PMS5003;58557;50.982;-3.222;2022-09-17T02:21:25;2;1;
70915;PMS5003;58557;50.982;-3.222;2022-09-17T02:23:51;2;1;
70915;PMS5003;58557;50.982;-3.222;2022-09-17T02:26:14;2;1;
70915;PMS5003;58557;50.982;-3.222;2022-09-17T02:28:40;1;1;
70915;PMS5003;58557;50.982;-3.222;2022-09-17T02:31:09;1;1;
70915;PMS5003;58557;50.982;-3.222;2022-09-17T02:33:30;1;1;
70915;PMS5003;58557;50.982;-3.222;2022-09-17T02:35:55;1;1;
70915;PMS5003;58557;50.982;-3.222;2022-09-17T02:38:21;1;1;
70915;PMS5003;58557;50.982;-3.222;2022-09-17T02:40:46;1;1;
70915;PMS5003;58557;50.982;-3.222;2022-09-17T02:43:12;1;0;
70915;PMS5003;58557;50.982;-3.222;2022-09-17T02:45:39;1;1;
70915;PMS5003;58557;50.982;-3.222;2022-09-17T02:48:05;0;0;
70915;PMS5003;58557;50.982;-3.222;2022-09-17T02:50:29;0;0;
70915;PMS5003;58557;50.982;-3.222;2022-09-17T02:52:56;3;3;
70915;PMS5003;58557;50.982;-3.222;2022-09-17T02:55:17;2;2;
70915;PMS5003;58557;50.982;-3.222;2022-09-17T02:57:42;3;2;
70915;PMS5003;58557;50.982;-3.222;2022-09-17T03:00:06;4;2;
70915;PMS5003;58557;50.982;-3.222;2022-09-17T03:02:31;1;1;
70915;PMS5003;58557;50.982;-3.222;2022-09-17T03:05:01;3;3;
70915;PMS5003;58557;50.982;-3.222;2022-09-17T03:07:21;1;1;
70915;PMS5003;58557;50.982;-3.222;2022-09-17T03:09:46;2;1;
70915;PMS5003;58557;50.982;-3.222;2022-09-17T03:12:12;2;2;
70915;PMS5003;58557;50.982;-3.222;2022-09-17T03:14:41;3;1;
70915;PMS5003;58557;50.982;-3.222;2022-09-17T03:17:07;2;2;
70915;PMS5003;58557;50.982;-3.222;2022-09-17T03:19:27;1;1;
70915;PMS5003;58557;50.982;-3.222;2022-09-17T03:21:57;3;3;
70915;PMS5003;58557;50.982;-3.222;2022-09-17T03:24:17;2;2;
70915;PMS5003;58557;50.982;-3.222;2022-09-17T03:26:47;2;2;
70915;PMS5003;58557;50.982;-3.222;2022-09-17T03:29:12;3;2;
70915;PMS5003;58557;50.982;-3.222;2022-09-17T03:31:32;1;1;
70915;PMS5003;58557;50.982;-3.222;2022-09-17T03:34:03;2;2;
70915;PMS5003;58557;50.982;-3.222;2022-09-17T03:36:23;2;1;
70915;PMS5003;58557;50.982;-3.222;2022-09-17T03:38:48;1;1;
70915;PMS5003;58557;50.982;-3.222;2022-09-17T03:41:13;1;1;
70915;PMS5003;58557;50.982;-3.222;2022-09-17T03:43:43;1;1;
70915;PMS5003;58557;50.982;-3.222;2022-09-17T03:46:03;1;1;
70915;PMS5003;58557;50.982;-3.222;2022-09-17T03:48:28;2;2;
70915;PMS5003;58557;50.982;-3.222;2022-09-17T03:50:58;2;2;
70915;PMS5003;58557;50.982;-3.222;2022-09-17T03:53:18;2;2;
70915;PMS5003;58557;50.982;-3.222;2022-09-17T03:55:43;2;2;
70915;PMS5003;58557;50.982;-3.222;2022-09-17T03:58:08;2;2;
70915;PMS5003;58557;50.982;-3.222;2022-09-17T04:00:38;2;2;
70915;PMS5003;58557;50.982;-3.222;2022-09-17T04:03:00;3;3;
70915;PMS5003;58557;50.982;-3.222;2022-09-17T04:05:23;2;2;
70915;PMS5003;58557;50.982;-3.222;2022-09-17T04:07:49;3;2;
70915;PMS5003;58557;50.982;-3.222;2022-09-17T04:10:14;2;2;
70915;PMS5003;58557;50.982;-3.222;2022-09-17T04:12:44;3;2;
70915;PMS5003;58557;50.982;-3.222;2022-09-17T04:15:04;3;3;
70915;PMS5003;58557;50.982;-3.222;2022-09-17T04:17:29;4;3;
70915;PMS5003;58557;50.982;-3.222;2022-09-17T04:19:59;2;2;
70915;PMS5003;58557;50.982;-3.222;2022-09-17T04:22:19;2;2;
70915;PMS5003;58557;50.982;-3.222;2022-09-17T04:24:44;4;3;
70915;PMS5003;58557;50.982;-3.222;2022-09-17T04:27:14;3;3;
70915;PMS5003;58557;50.982;-3.222;2022-09-17T04:29:34;2;2;
70915;PMS5003;58557;50.982;-3.222;2022-09-17T04:32:00;3;3;
70915;PMS5003;58557;50.982;-3.222;2022-09-17T04:34:25;3;3;
70915;PMS5003;58557;50.982;-3.222;2022-09-17T04:36:55;3;3;
70915;PMS5003;58557;50.982;-3.222;2022-09-17T04:39:15;3;3;
70915;PMS5003;58557;50.982;-3.222;2022-09-17T04:41:40;6;6;
70915;PMS5003;58557;50.982;-3.222;2022-09-17T04:44:10;3;3;
70915;PMS5003;58557;50.982;-3.222;2022-09-17T04:46:30;1;1;
70915;PMS5003;58557;50.982;-3.222;2022-09-17T04:49:00;3;3;
70915;PMS5003;58557;50.982;-3.222;2022-09-17T04:51:20;2;2;
70915;PMS5003;58557;50.982;-3.222;2022-09-17T04:53:46;3;3;
70915;PMS5003;58557;50.982;-3.222;2022-09-17T04:56:10;2;2;
70915;PMS5003;58557;50.982;-3.222;2022-09-17T04:58:40;2;2;
70915;PMS5003;58557;50.982;-3.222;2022-09-17T05:01:06;3;3;
70915;PMS5003;58557;50.982;-3.222;2022-09-17T05:03:26;2;2;
70915;PMS5003;58557;50.982;-3.222;2022-09-17T05:05:51;2;2;
70915;PMS5003;58557;50.982;-3.222;2022-09-17T05:08:16;2;2;
70915;PMS5003;58557;50.982;-3.222;2022-09-17T05:10:41;2;2;
70915;PMS5003;58557;50.982;-3.222;2022-09-17T05:13:06;2;2;
70915;PMS5003;58557;50.982;-3.222;2022-09-17T05:15:36;4;2;
70915;PMS5003;58557;50.982;-3.222;2022-09-17T05:17:56;2;2;
70915;PMS5003;58557;50.982;-3.222;2022-09-17T05:20:26;4;2;
70915;PMS5003;58557;50.982;-3.222;2022-09-17T05:22:52;2;2;
70915;PMS5003;58557;50.982;-3.222;2022-09-17T05:25:12;4;4;
70915;PMS5003;58557;50.982;-3.222;2022-09-17T05:27:42;3;3;
70915;PMS5003;58557;50.982;-3.222;2022-09-17T05:30:07;3;3;
70915;PMS5003;58557;50.982;-3.222;2022-09-17T05:32:27;6;3;
70915;PMS5003;58557;50.982;-3.222;2022-09-17T05:34:52;3;3;
70915;PMS5003;58557;50.982;-3.222;2022-09-17T05:37:22;4;4;
70915;PMS5003;58557;50.982;-3.222;2022-09-17T05:39:42;4;3;
70915;PMS5003;58557;50.982;-3.222;2022-09-17T05:42:07;7;5;
70915;PMS5003;58557;50.982;-3.222;2022-09-17T05:44:37;5;5;
70915;PMS5003;58557;50.982;-3.222;2022-09-17T05:47:03;8;6;
70915;PMS5003;58557;50.982;-3.222;2022-09-17T05:49:23;5;5;
70915;PMS5003;58557;50.982;-3.222;2022-09-17T05:51:48;5;5;
70915;PMS5003;58557;50.982;-3.222;2022-09-17T05:54:13;7;7;
70915;PMS5003;58557;50.982;-3.222;2022-09-17T05:56:38;5;5;
70915;PMS5003;58557;50.982;-3.222;2022-09-17T05:59:03;5;3;
70915;PMS5003;58557;50.982;-3.222;2022-09-17T06:01:28;5;5;
70915;PMS5003;58557;50.982;-3.222;2022-09-17T06:03:53;5;5;
70915;PMS5003;58557;50.982;-3.222;2022-09-17T06:06:19;8;6;
70915;PMS5003;58557;50.982;-3.222;2022-09-17T06:08:49;7;7;
70915;PMS5003;58557;50.982;-3.222;2022-09-17T06:11:09;6;6;
70915;PMS5003;58557;50.982;-3.222;2022-09-17T06:13:39;4;4;
70915;PMS5003;58557;50.982;-3.222;2022-09-17T06:15:59;3;3;
70915;PMS5003;58557;50.982;-3.222;2022-09-17T06:18:24;4;2;
70915;PMS5003;58557;50.982;-3.222;2022-09-17T06:20:52;6;4;
70915;PMS5003;58557;50.982;-3.222;2022-09-17T06:23:19;2;2;
70915;PMS5003;58557;50.982;-3.222;2022-09-17T06:25:39;6;4;
70915;PMS5003;58557;50.982;-3.222;2022-09-17T06:28:04;6;3;
70915;PMS5003;58557;50.982;-3.222;2022-09-17T06:30:35;3;3;
70915;PMS5003;58557;50.982;-3.222;2022-09-17T06:32:54;6;4;
70915;PMS5003;58557;50.982;-3.222;2022-09-17T06:35:20;3;3;
70915;PMS5003;58557;50.982;-3.222;2022-09-17T06:37:45;3;2;
70915;PMS5003;58557;50.982;-3.222;2022-09-17T06:40:15;2;2;
70915;PMS5003;58557;50.982;-3.222;2022-09-17T06:42:35;3;3;
70915;PMS5003;58557;50.982;-3.222;2022-09-17T06:45:00;3;3;
70915;PMS5003;58557;50.982;-3.222;2022-09-17T06:47:25;4;3;
70915;PMS5003;58557;50.982;-3.222;2022-09-17T06:49:55;2;2;
70915;PMS5003;58557;50.982;-3.222;2022-09-17T06:52:15;6;4;
70915;PMS5003;58557;50.982;-3.222;2022-09-17T06:54:40;3;3;
70915;PMS5003;58557;50.982;-3.222;2022-09-17T06:57:05;3;3;
70915;PMS5003;58557;50.982;-3.222;2022-09-17T06:59:30;7;7;
70915;PMS5003;58557;50.982;-3.222;2022-09-17T07:02:00;8;6;
70915;PMS5003;58557;50.982;-3.222;2022-09-17T07:04:20;3;2;
70915;PMS5003;58557;50.982;-3.222;2022-09-17T07:06:45;3;2;
70915;PMS5003;58557;50.982;-3.222;2022-09-17T07:09:15;3;2;
70915;PMS5003;58557;50.982;-3.222;2022-09-17T07:11:36;3;3;
70915;PMS5003;58557;50.982;-3.222;2022-09-17T07:14:01;3;3;
70915;PMS5003;58557;50.982;-3.222;2022-09-17T07:16:27;2;2;
70915;PMS5003;58557;50.982;-3.222;2022-09-17T07:18:53;3;3;
70915;PMS5003;58557;50.982;-3.222;2022-09-17T07:21:19;4;2;
70915;PMS5003;58557;50.982;-3.222;2022-09-17T07:23:44;2;2;
70915;PMS5003;58557;50.982;-3.222;2022-09-17T07:26:11;5;2;
70915;PMS5003;58557;50.982;-3.222;2022-09-17T07:28:40;3;2;
70915;PMS5003;58557;50.982;-3.222;2022-09-17T07:31:05;2;2;
70915;PMS5003;58557;50.982;-3.222;2022-09-17T07:33:26;3;3;
70915;PMS5003;58557;50.982;-3.222;2022-09-17T07:35:52;1;1;
70915;PMS5003;58557;50.982;-3.222;2022-09-17T07:38:22;4;3;
70915;PMS5003;58557;50.982;-3.222;2022-09-17T07:40:54;3;1;
70915;PMS5003;58557;50.982;-3.222;2022-09-17T07:43:13;5;3;
70915;PMS5003;58557;50.982;-3.222;2022-09-17T07:45:39;2;2;
70915;PMS5003;58557;50.982;-3.222;2022-09-17T07:48:05;3;1;
70915;PMS5003;58557;50.982;-3.222;2022-09-17T07:50:31;3;3;
70915;PMS5003;58557;50.982;-3.222;2022-09-17T07:52:51;2;2;
70915;PMS5003;58557;50.982;-3.222;2022-09-17T07:55:17;5;2;
70915;PMS5003;58557;50.982;-3.222;2022-09-17T07:57:50;1;1;
70915;PMS5003;58557;50.982;-3.222;2022-09-17T08:00:09;2;2;
70915;PMS5003;58557;50.982;-3.222;2022-09-17T08:02:34;3;3;
70915;PMS5003;58557;50.982;-3.222;2022-09-17T08:05:00;8;7;
70915;PMS5003;58557;50.982;-3.222;2022-09-17T08:07:26;7;7;
70915;PMS5003;58557;50.982;-3.222;2022-09-17T08:09:52;3;2;
70915;PMS5003;58557;50.982;-3.222;2022-09-17T08:12:17;3;3;
70915;PMS5003;58557;50.982;-3.222;2022-09-17T08:14:48;4;4;
70915;PMS5003;58557;50.982;-3.222;2022-09-17T08:17:14;2;2;
70915;PMS5003;58557;50.982;-3.222;2022-09-17T08:19:35;3;3;
70915;PMS5003;58557;50.982;-3.222;2022-09-17T08:22:05;3;3;
70915;PMS5003;58557;50.982;-3.222;2022-09-17T08:24:26;1;1;
70915;PMS5003;58557;50.982;-3.222;2022-09-17T08:26:52;2;2;
70915;PMS5003;58557;50.982;-3.222;2022-09-17T08:29:22;6;6;
70915;PMS5003;58557;50.982;-3.222;2022-09-17T08:31:45;3;2;
70915;PMS5003;58557;50.982;-3.222;2022-09-17T08:34:13;5;3;
70915;PMS5003;58557;50.982;-3.222;2022-09-17T08:36:34;2;2;
70915;PMS5003;58557;50.982;-3.222;2022-09-17T08:39:04;3;2;
70915;PMS5003;58557;50.982;-3.222;2022-09-17T08:41:33;1;1;
70915;PMS5003;58557;50.982;-3.222;2022-09-17T08:43:53;5;2;
70915;PMS5003;58557;50.982;-3.222;2022-09-17T08:46:16;3;2;
70915;PMS5003;58557;50.982;-3.222;2022-09-17T08:48:48;2;2;
70915;PMS5003;58557;50.982;-3.222;2022-09-17T08:51:14;3;1;
70915;PMS5003;58557;50.982;-3.222;2022-09-17T08:53:38;1;1;
70915;PMS5003;58557;50.982;-3.222;2022-09-17T08:56:00;5;2;
70915;PMS5003;58557;50.982;-3.222;2022-09-17T08:58:30;2;2;
70915;PMS5003;58557;50.982;-3.222;2022-09-17T09:00:52;1;1;
70915;PMS5003;58557;50.982;-3.222;2022-09-17T09:03:24;1;1;
70915;PMS5003;58557;50.982;-3.222;2022-09-17T09:05:41;1;1;
70915;PMS5003;58557;50.982;-3.222;2022-09-17T09:08:10;1;1;
70915;PMS5003;58557;50.982;-3.222;2022-09-17T09:10:35;2;2;
70915;PMS5003;58557;50.982;-3.222;2022-09-17T09:12:58;3;1;
70915;PMS5003;58557;50.982;-3.222;2022-09-17T09:17:54;5;1;
70915;PMS5003;58557;50.982;-3.222;2022-09-17T09:20:15;1;1;
70915;PMS5003;58557;50.982;-3.222;2022-09-17T09:22:46;1;1;
70915;PMS5003;58557;50.982;-3.222;2022-09-17T09:25:10;2;2;
70915;PMS5003;58557;50.982;-3.222;2022-09-17T09:27:32;2;1;
70915;PMS5003;58557;50.982;-3.222;2022-09-17T09:30:03;1;1;
70915;PMS5003;58557;50.982;-3.222;2022-09-17T09:32:25;4;4;
70915;PMS5003;58557;50.982;-3.222;2022-09-17T09:34:48;2;2;
70915;PMS5003;58557;50.982;-3.222;2022-09-17T09:37:20;2;2;
70915;PMS5003;58557;50.982;-3.222;2022-09-17T09:39:40;3;3;
70915;PMS5003;58557;50.982;-3.222;2022-09-17T09:42:08;7;5;
70915;PMS5003;58557;50.982;-3.222;2022-09-17T09:44:36;1;1;
70915;PMS5003;58557;50.982;-3.222;2022-09-17T09:47:07;0;0;
70915;PMS5003;58557;50.982;-3.222;2022-09-17T09:49:27;2;0;
70915;PMS5003;58557;50.982;-3.222;2022-09-17T09:51:50;0;0;
70915;PMS5003;58557;50.982;-3.222;2022-09-17T09:54:19;1;1;
70915;PMS5003;58557;50.982;-3.222;2022-09-17T09:59:10;2;2;
70915;PMS5003;58557;50.982;-3.222;2022-09-17T10:01:30;2;1;
70915;PMS5003;58557;50.982;-3.222;2022-09-17T10:03:56;1;1;
70915;PMS5003;58557;50.982;-3.222;2022-09-17T10:06:22;2;2;
70915;PMS5003;58557;50.982;-3.222;2022-09-17T10:11:19;2;2;
70915;PMS5003;58557;50.982;-3.222;2022-09-17T10:13:39;3;1;
70915;PMS5003;58557;50.982;-3.222;2022-09-17T10:18:30;1;1;
70915;PMS5003;58557;50.982;-3.222;2022-09-17T10:21:01;2;1;
70915;PMS5003;58557;50.982;-3.222;2022-09-17T10:23:22;3;1;
70915;PMS5003;58557;50.982;-3.222;2022-09-17T10:25:47;2;1;
70915;PMS5003;58557;50.982;-3.222;2022-09-17T10:30:38;2;2;
70915;PMS5003;58557;50.982;-3.222;2022-09-17T10:35:29;1;1;
70915;PMS5003;58557;50.982;-3.222;2022-09-17T10:38:00;2;2;
70915;PMS5003;58557;50.982;-3.222;2022-09-17T10:40:27;1;1;
70915;PMS5003;58557;50.982;-3.222;2022-09-17T10:42:47;3;1;
70915;PMS5003;58557;50.982;-3.222;2022-09-17T10:45:22;2;1;
70915;PMS5003;58557;50.982;-3.222;2022-09-17T10:47:42;1;1;
70915;PMS5003;58557;50.982;-3.222;2022-09-17T10:50:04;2;2;
70915;PMS5003;58557;50.982;-3.222;2022-09-17T10:52:29;3;1;
70915;PMS5003;58557;50.982;-3.222;2022-09-17T10:54:58;2;2;
70915;PMS5003;58557;50.982;-3.222;2022-09-17T10:57:22;2;2;
70915;PMS5003;58557;50.982;-3.222;2022-09-17T10:59:54;1;1;
70915;PMS5003;58557;50.982;-3.222;2022-09-17T11:04:41;2;2;
70915;PMS5003;58557;50.982;-3.222;2022-09-17T11:07:05;3;3;
70915;PMS5003;58557;50.982;-3.222;2022-09-17T11:09:37;1;1;
70915;PMS5003;58557;50.982;-3.222;2022-09-17T11:11:58;4;2;
70915;PMS5003;58557;50.982;-3.222;2022-09-17T11:16:46;2;2;
70915;PMS5003;58557;50.982;-3.222;2022-09-17T11:19:13;2;2;
70915;PMS5003;58557;50.982;-3.222;2022-09-17T11:21:39;1;1;
70915;PMS5003;58557;50.982;-3.222;2022-09-17T11:26:29;1;1;
70915;PMS5003;58557;50.982;-3.222;2022-09-17T11:28:56;3;3;
70915;PMS5003;58557;50.982;-3.222;2022-09-17T11:31:23;2;2;
70915;PMS5003;58557;50.982;-3.222;2022-09-17T11:33:54;3;2;
70915;PMS5003;58557;50.982;-3.222;2022-09-17T11:36:12;1;1;
70915;PMS5003;58557;50.982;-3.222;2022-09-17T11:38:42;4;2;
70915;PMS5003;58557;50.982;-3.222;2022-09-17T11:41:03;1;1;
70915;PMS5003;58557;50.982;-3.222;2022-09-17T11:43:28;1;1;
70915;PMS5003;58557;50.982;-3.222;2022-09-17T11:45:57;3;1;
70915;PMS5003;58557;50.982;-3.222;2022-09-17T11:48:26;1;1;
70915;PMS5003;58557;50.982;-3.222;2022-09-17T11:50:46;2;2;
70915;PMS5003;58557;50.982;-3.222;2022-09-17T11:53:13;2;2;
70915;PMS5003;58557;50.982;-3.222;2022-09-17T11:55:38;1;1;
70915;PMS5003;58557;50.982;-3.222;2022-09-17T11:58:06;1;1;
70915;PMS5003;58557;50.982;-3.222;2022-09-17T12:00:28;2;0;
70915;PMS5003;58557;50.982;-3.222;2022-09-17T12:02:55;2;2;
70915;PMS5003;58557;50.982;-3.222;2022-09-17T12:05:19;3;1;
70915;PMS5003;58557;50.982;-3.222;2022-09-17T12:07:47;5;4;
70915;PMS5003;58557;50.982;-3.222;2022-09-17T12:10:17;1;1;
70915;PMS5003;58557;50.982;-3.222;2022-09-17T12:12:36;2;2;
70915;PMS5003;58557;50.982;-3.222;2022-09-17T12:15:04;3;2;
70915;PMS5003;58557;50.982;-3.222;2022-09-17T12:17:28;3;1;
70915;PMS5003;58557;50.982;-3.222;2022-09-17T12:19:53;2;2;
70915;PMS5003;58557;50.982;-3.222;2022-09-17T12:22:24;3;2;
70915;PMS5003;58557;50.982;-3.222;2022-09-17T12:24:44;2;2;
70915;PMS5003;58557;50.982;-3.222;2022-09-17T12:27:14;1;1;
70915;PMS5003;58557;50.982;-3.222;2022-09-17T12:29:40;3;3;
70915;PMS5003;58557;50.982;-3.222;2022-09-17T12:32:02;1;1;
70915;PMS5003;58557;50.982;-3.222;2022-09-17T12:34:29;1;1;
70915;PMS5003;58557;50.982;-3.222;2022-09-17T12:36:54;3;2;
70915;PMS5003;58557;50.982;-3.222;2022-09-17T12:41:46;3;2;
70915;PMS5003;58557;50.982;-3.222;2022-09-17T12:44:20;1;1;
70915;PMS5003;58557;50.982;-3.222;2022-09-17T12:46:40;1;1;
70915;PMS5003;58557;50.982;-3.222;2022-09-17T12:49:12;2;1;
70915;PMS5003;58557;50.982;-3.222;2022-09-17T12:53:59;2;2;
70915;PMS5003;58557;50.982;-3.222;2022-09-17T12:56:26;3;2;
70915;PMS5003;58557;50.982;-3.222;2022-09-17T12:58:49;4;2;
70915;PMS5003;58557;50.982;-3.222;2022-09-17T13:01:16;2;2;
70915;PMS5003;58557;50.982;-3.222;2022-09-17T13:03:35;4;2;
70915;PMS5003;58557;50.982;-3.222;2022-09-17T13:06:06;3;3;
70915;PMS5003;58557;50.982;-3.222;2022-09-17T13:10:58;3;2;
70915;PMS5003;58557;50.982;-3.222;2022-09-17T13:15:45;2;2;
70915;PMS5003;58557;50.982;-3.222;2022-09-17T13:18:11;2;2;
70915;PMS5003;58557;50.982;-3.222;2022-09-17T13:20:40;2;2;
70915;PMS5003;58557;50.982;-3.222;2022-09-17T13:23:00;4;4;
70915;PMS5003;58557;50.982;-3.222;2022-09-17T13:25:25;1;1;
70915;PMS5003;58557;50.982;-3.222;2022-09-17T13:30:17;3;1;
70915;PMS5003;58557;50.982;-3.222;2022-09-17T13:32:44;2;2;
70915;PMS5003;58557;50.982;-3.222;2022-09-17T13:37:34;3;1;
70915;PMS5003;58557;50.982;-3.222;2022-09-17T13:39:59;11;8;
70915;PMS5003;58557;50.982;-3.222;2022-09-17T13:42:25;6;4;
70915;PMS5003;58557;50.982;-3.222;2022-09-17T13:44:50;6;6;
70915;PMS5003;58557;50.982;-3.222;2022-09-17T13:47:17;4;4;
70915;PMS5003;58557;50.982;-3.222;2022-09-17T13:49:43;4;2;
70915;PMS5003;58557;50.982;-3.222;2022-09-17T13:52:07;2;2;
70915;PMS5003;58557;50.982;-3.222;2022-09-17T13:54:35;13;10;
70915;PMS5003;58557;50.982;-3.222;2022-09-17T13:57:04;3;3;
70915;PMS5003;58557;50.982;-3.222;2022-09-17T13:59:28;2;2;
70915;PMS5003;58557;50.982;-3.222;2022-09-17T14:01:56;2;2;
70915;PMS5003;58557;50.982;-3.222;2022-09-17T14:11:35;3;3;
70915;PMS5003;58557;50.982;-3.222;2022-09-17T14:16:25;3;3;
70915;PMS5003;58557;50.982;-3.222;2022-09-17T14:18:56;7;7;
70915;PMS5003;58557;50.982;-3.222;2022-09-17T14:21:21;6;5;
70915;PMS5003;58557;50.982;-3.222;2022-09-17T14:23:42;2;2;
70915;PMS5003;58557;50.982;-3.222;2022-09-17T14:26:13;3;3;
70915;PMS5003;58557;50.982;-3.222;2022-09-17T14:28:38;2;1;
70915;PMS5003;58557;50.982;-3.222;2022-09-17T14:31:02;2;2;
70915;PMS5003;58557;50.982;-3.222;2022-09-17T14:33:28;3;3;
70915;PMS5003;58557;50.982;-3.222;2022-09-17T14:35:49;4;3;
70915;PMS5003;58557;50.982;-3.222;2022-09-17T14:38:16;5;3;
70915;PMS5003;58557;50.982;-3.222;2022-09-17T14:40:41;1;1;
70915;PMS5003;58557;50.982;-3.222;2022-09-17T14:43:05;1;1;
70915;PMS5003;58557;50.982;-3.222;2022-09-17T14:45:37;1;1;
70915;PMS5003;58557;50.982;-3.222;2022-09-17T14:50:23;2;2;
70915;PMS5003;58557;50.982;-3.222;2022-09-17T14:52:48;3;3;
70915;PMS5003;58557;50.982;-3.222;2022-09-17T14:55:15;3;3;
70915;PMS5003;58557;50.982;-3.222;2022-09-17T14:57:45;2;2;
70915;PMS5003;58557;50.982;-3.222;2022-09-17T15:02:32;1;1;
70915;PMS5003;58557;50.982;-3.222;2022-09-17T15:04:56;2;2;
70915;PMS5003;58557;50.982;-3.222;2022-09-17T15:07:22;1;1;
70915;PMS5003;58557;50.982;-3.222;2022-09-17T15:09:47;4;2;
70915;PMS5003;58557;50.982;-3.222;2022-09-17T15:12:18;3;3;
70915;PMS5003;58557;50.982;-3.222;2022-09-17T15:14:39;3;3;
70915;PMS5003;58557;50.982;-3.222;2022-09-17T15:17:04;2;1;
70915;PMS5003;58557;50.982;-3.222;2022-09-17T15:19:32;3;3;
70915;PMS5003;58557;50.982;-3.222;2022-09-17T15:21:56;3;2;
70915;PMS5003;58557;50.982;-3.222;2022-09-17T15:24:31;2;2;
70915;PMS5003;58557;50.982;-3.222;2022-09-17T15:26:48;2;2;
70915;PMS5003;58557;50.982;-3.222;2022-09-17T15:29:18;3;3;
70915;PMS5003;58557;50.982;-3.222;2022-09-17T15:31:38;2;2;
70915;PMS5003;58557;50.982;-3.222;2022-09-17T15:34:09;3;2;
70915;PMS5003;58557;50.982;-3.222;2022-09-17T15:36:35;2;2;
70915;PMS5003;58557;50.982;-3.222;2022-09-17T15:38:56;5;3;
70915;PMS5003;58557;50.982;-3.222;2022-09-17T15:41:23;3;3;
70915;PMS5003;58557;50.982;-3.222;2022-09-17T15:43:47;4;3;
70915;PMS5003;58557;50.982;-3.222;2022-09-17T15:46:20;4;3;
70915;PMS5003;58557;50.982;-3.222;2022-09-17T15:48:38;3;3;
70915;PMS5003;58557;50.982;-3.222;2022-09-17T15:51:04;2;2;
70915;PMS5003;58557;50.982;-3.222;2022-09-17T15:53:30;1;1;
70915;PMS5003;58557;50.982;-3.222;2022-09-17T15:56:02;2;2;
70915;PMS5003;58557;50.982;-3.222;2022-09-17T15:58:22;1;1;
70915;PMS5003;58557;50.982;-3.222;2022-09-17T16:05:43;3;3;
70915;PMS5003;58557;50.982;-3.222;2022-09-17T16:10:29;4;2;
70915;PMS5003;58557;50.982;-3.222;2022-09-17T16:12:55;2;2;
70915;PMS5003;58557;50.982;-3.222;2022-09-17T16:15:25;2;2;
70915;PMS5003;58557;50.982;-3.222;2022-09-17T16:17:46;4;2;
70915;PMS5003;58557;50.982;-3.222;2022-09-17T16:20:13;3;2;
70915;PMS5003;58557;50.982;-3.222;2022-09-17T16:22:37;3;2;
70915;PMS5003;58557;50.982;-3.222;2022-09-17T16:25:04;3;3;
70915;PMS5003;58557;50.982;-3.222;2022-09-17T16:27:29;2;1;
70915;PMS5003;58557;50.982;-3.222;2022-09-17T16:29:56;3;1;
70915;PMS5003;58557;50.982;-3.222;2022-09-17T16:32:25;1;1;
70915;PMS5003;58557;50.982;-3.222;2022-09-17T16:34:46;2;2;
70915;PMS5003;58557;50.982;-3.222;2022-09-17T16:37:11;2;2;
70915;PMS5003;58557;50.982;-3.222;2022-09-17T16:39:37;1;1;
70915;PMS5003;58557;50.982;-3.222;2022-09-17T16:42:04;1;1;
70915;PMS5003;58557;50.982;-3.222;2022-09-17T16:44:28;3;3;
70915;PMS5003;58557;50.982;-3.222;2022-09-17T16:46:59;1;1;
70915;PMS5003;58557;50.982;-3.222;2022-09-17T16:49:25;2;2;
70915;PMS5003;58557;50.982;-3.222;2022-09-17T16:51:51;2;1;
70915;PMS5003;58557;50.982;-3.222;2022-09-17T16:54:11;3;1;
70915;PMS5003;58557;50.982;-3.222;2022-09-17T16:56:37;2;2;
70915;PMS5003;58557;50.982;-3.222;2022-09-17T16:59:08;2;2;
70915;PMS5003;58557;50.982;-3.222;2022-09-17T17:01:33;5;3;
70915;PMS5003;58557;50.982;-3.222;2022-09-17T17:03:54;4;2;
70915;PMS5003;58557;50.982;-3.222;2022-09-17T17:06:20;2;2;
70915;PMS5003;58557;50.982;-3.222;2022-09-17T17:08:45;2;2;
70915;PMS5003;58557;50.982;-3.222;2022-09-17T17:11:12;6;5;
70915;PMS5003;58557;50.982;-3.222;2022-09-17T17:13:42;2;2;
70915;PMS5003;58557;50.982;-3.222;2022-09-17T17:16:04;1;1;
70915;PMS5003;58557;50.982;-3.222;2022-09-17T17:18:28;3;2;
70915;PMS5003;58557;50.982;-3.222;2022-09-17T17:20:54;2;2;
70915;PMS5003;58557;50.982;-3.222;2022-09-17T17:23:20;1;1;
70915;PMS5003;58557;50.982;-3.222;2022-09-17T17:25:45;2;2;
70915;PMS5003;58557;50.982;-3.222;2022-09-17T17:28:16;3;2;